ENAT/ALF METAR and TAF weather

Enter ICAO airport designator
Station Type Date Time Source
ENAT METAR 2022/06/25 22:50 UTC NOAA

ENAT 252250Z AUTO 30013KT 9999 OVC140/// 11/09 Q1017 RMK WIND 700FT 31015KT


Station Type Date Time Source
ENAT Decoded METAR 2022/06/25 22:50 UTC NOAA

Alta Lufthavn, Norway (ENAT) 69-59N 023-22E 3M
Jun 25, 2022 - 06:50 PM EDT / 2022.06.25 2250 UTC
Wind: from the WNW (300 degrees) at 15 MPH (13 KT):0
Visibility: greater than 7 mile(s):0
Sky conditions: overcast
Temperature: 51 F (11 C)
Dew Point: 48 F (9 C)
Relative Humidity: 87%
Pressure (altimeter): 30.03 in. Hg (1017 hPa)
ob: ENAT 252250Z AUTO 30013KT 9999 OVC140/// 11/09 Q1017 RMK WIND 700FT 31015KT
cycle: 23

Station Type Date Time Source
ENAT TAF 2008/11/30 23:00 UTC NOAA

TAF TAF ENAT 302300Z 3023/0102 22005KT 7000 -SN FEW008 BKN020
TEMPO 3023/0102 3000 -SN VV012

Example: see airport list